< < Back
Terminal Aerodrome Forecast


Current Version              Previous Versions:   1  2  3  4  5  6  7  8  9  

Terminal Aerodrome Forecast

588
FTUS42 KFFC 042305 AAA
TAFFTY
TAF AMD
KFTY 042305Z 0423/0518 25007KT 5SM SHRA SCT025 BKN040
      TEMPO 0423/0503 VRB15G25KT 3SM TSRA BKN025CB
     FM050600 26006KT 4SM BR BKN015
     FM051400 25005KT P6SM FEW025 BKN045=

Latest METAR

662
SAUS70 KWBC 051200 RRH
MTRFTY
METAR KFTY 051153Z 22005KT 10SM SCT007 21/19 A3013 RMK AO2 SLP194 70036
T02060189 10211 20206 53010


USA.gov is the U.S. government's official web portal to all federal, state and local government web resources and services.